Time;durP1;ratioP1;P1;durP2;ratioP2;P2;SDS_P1;SDS_P2;PMS_P1;PMS_P2;Temp;Humidity;BMP_temperature;BMP_pressure;BME280_temperature;BME280_humidity;BME280_pressure;Samples;Min_cycle;Max_cycle;Signal;HPM_P1;HPM_P2
2022/07/17 00:02:15;;;;;;;5.43;3.08;;;;;;;12.56;90.02;99234.84;5126082;28;20020;-67
2022/07/17 00:04:40;;;;;;;3.50;2.45;;;;;;;12.41;89.69;99234.25;5126053;28;20207;-67
2022/07/17 00:07:06;;;;;;;4.93;2.63;;;;;;;12.39;90.20;99236.03;5125984;28;20019;-67
2022/07/17 00:09:31;;;;;;;7.45;2.80;;;;;;;12.44;90.58;99240.31;5125931;28;20016;-67
2022/07/17 00:11:57;;;;;;;5.90;2.75;;;;;;;12.36;90.70;99233.44;5125909;28;20020;-67
2022/07/17 00:14:22;;;;;;;4.45;2.97;;;;;;;12.35;89.85;99232.59;5125869;28;20090;-67
2022/07/17 00:16:47;;;;;;;5.82;2.72;;;;;;;12.26;89.80;99234.50;5125759;28;20019;-67
2022/07/17 00:19:13;;;;;;;4.20;2.63;;;;;;;12.17;89.61;99229.38;5125688;28;20371;-67
2022/07/17 00:21:38;;;;;;;3.35;2.45;;;;;;;12.09;90.03;99228.63;5125622;28;20019;-67
2022/07/17 00:24:06;;;;;;;3.63;2.42;;;;;;;12.11;90.44;99230.34;5125686;28;20015;-67
2022/07/17 00:26:32;;;;;;;6.93;2.80;;;;;;;11.98;90.75;99228.78;5125673;28;20036;-67
2022/07/17 00:28:57;;;;;;;3.45;2.60;;;;;;;11.90;91.65;99227.16;5125477;28;20301;-67
2022/07/17 00:31:23;;;;;;;6.82;2.97;;;;;;;11.98;92.23;99234.06;5125568;28;20019;-67
2022/07/17 00:33:48;;;;;;;4.18;2.72;;;;;;;11.96;91.87;99235.84;5125444;28;20023;-67
2022/07/17 00:36:13;;;;;;;4.38;2.40;;;;;;;12.02;91.80;99227.84;5125356;28;20038;-67
2022/07/17 00:38:39;;;;;;;7.38;2.50;;;;;;;12.08;91.77;99235.66;5125287;28;20043;-67
2022/07/17 00:41:04;;;;;;;4.82;2.83;;;;;;;11.86;90.96;99223.69;5125313;28;20112;-67
2022/07/17 00:43:30;;;;;;;3.38;2.60;;;;;;;11.94;91.71;99236.78;5125540;28;20090;-67
2022/07/17 00:45:57;;;;;;;6.10;2.75;;;;;;;11.91;91.96;99236.81;5124581;28;20030;-67
2022/07/17 00:48:23;;;;;;;4.63;3.03;;;;;;;11.92;90.83;99228.88;5125450;28;20030;-67
2022/07/17 00:50:49;;;;;;;11.20;2.67;;;;;;;11.82;90.45;99223.75;5125104;28;20023;-67
2022/07/17 00:53:14;;;;;;;4.32;2.70;;;;;;;11.73;90.17;99218.63;5125080;28;20020;-67
2022/07/17 00:55:41;;;;;;;4.50;2.70;;;;;;;11.59;90.73;99224.09;5125070;28;20050;-67
2022/07/17 00:58:09;;;;;;;6.05;3.00;;;;;;;11.46;91.81;99219.88;5124977;28;20030;-67
2022/07/17 01:00:35;;;;;;;6.90;2.75;;;;;;;11.44;93.55;99219.00;5125116;28;20084;-68
2022/07/17 01:03:00;;;;;;;4.65;2.60;;;;;;;11.41;93.67;99218.16;5124920;28;20086;-68
2022/07/17 01:05:26;;;;;;;8.50;2.85;;;;;;;11.34;93.93;99222.66;5125145;28;20068;-68
2022/07/17 01:07:52;;;;;;;4.70;2.80;;;;;;;11.45;93.82;99220.75;5124865;28;20023;-68
2022/07/17 01:10:18;;;;;;;4.53;2.58;;;;;;;11.44;93.25;99213.75;5124823;28;20023;-68
2022/07/17 01:12:47;;;;;;;3.67;2.60;;;;;;;11.45;92.71;99215.47;5124811;28;20088;-68
2022/07/17 01:15:14;;;;;;;3.47;2.63;;;;;;;11.20;92.86;99208.78;5124743;28;20019;-67
2022/07/17 01:17:40;;;;;;;7.55;3.20;;;;;;;11.22;93.69;99214.03;5124592;28;20027;-67
2022/07/17 01:20:08;;;;;;;4.70;2.47;;;;;;;11.08;93.18;99208.06;5124710;28;20079;-67
2022/07/17 01:22:49;;;;;;;6.80;2.88;;;;;;;11.17;93.37;99219.34;5124434;28;20027;-67
2022/07/17 01:25:18;;;;;;;7.95;3.20;;;;;;;11.18;93.26;99223.75;5124656;28;20027;-67
2022/07/17 01:27:43;;;;;;;4.97;2.70;;;;;;;11.10;93.01;99217.69;5124366;28;20043;-67
2022/07/17 01:30:09;;;;;;;6.32;3.22;;;;;;;10.99;93.16;99222.22;5124572;28;20047;-67
2022/07/17 01:32:36;;;;;;;4.88;2.97;;;;;;;11.06;94.14;99226.53;5124560;28;20019;-67
2022/07/17 01:35:03;;;;;;;4.45;2.70;;;;;;;11.17;93.85;99229.88;5124525;28;20112;-67
2022/07/17 01:37:29;;;;;;;4.05;2.85;;;;;;;11.14;93.33;99229.97;5124547;28;20027;-67
2022/07/17 01:39:54;;;;;;;4.70;3.00;;;;;;;11.09;93.46;99221.22;5124554;28;20023;-67
2022/07/17 01:42:24;;;;;;;5.32;2.67;;;;;;;11.04;93.20;99217.75;5124457;28;20249;-67
2022/07/17 01:44:50;;;;;;;5.18;2.60;;;;;;;11.03;93.36;99226.56;5124455;28;20026;-67
2022/07/17 01:47:16;;;;;;;8.57;2.88;;;;;;;10.87;93.07;99219.72;5124693;28;20027;-67
2022/07/17 01:49:46;;;;;;;6.85;2.67;;;;;;;10.74;94.31;99224.28;5124395;28;20020;-67
2022/07/17 01:52:12;;;;;;;3.20;2.55;;;;;;;10.67;94.25;99221.72;5124369;28;20060;-67
2022/07/17 01:54:37;;;;;;;11.60;3.25;;;;;;;10.64;95.40;99221.75;5124400;28;20019;-68
2022/07/17 01:57:02;;;;;;;5.97;2.75;;;;;;;10.65;95.83;99220.84;5124830;28;20024;-68
2022/07/17 01:59:28;;;;;;;5.22;3.45;;;;;;;10.65;95.74;99223.47;5128426;28;20015;-68
2022/07/17 02:01:53;;;;;;;5.45;3.13;;;;;;;10.63;96.06;99214.72;5128472;28;20019;-68
2022/07/17 02:04:18;;;;;;;3.88;2.92;;;;;;;10.72;95.12;99214.63;5128378;28;20027;-68
2022/07/17 02:06:44;;;;;;;4.53;2.53;;;;;;;10.68;94.26;99207.66;5128369;28;20056;-68
2022/07/17 02:09:09;;;;;;;4.20;2.70;;;;;;;10.68;94.48;99207.66;5128281;28;20039;-68
2022/07/17 02:11:35;;;;;;;5.93;3.22;;;;;;;10.62;94.62;99210.34;5128198;28;20095;-68
2022/07/17 02:14:00;;;;;;;4.63;2.92;;;;;;;10.57;94.20;99206.91;5128280;28;20042;-68
2022/07/17 02:16:25;;;;;;;5.40;2.65;;;;;;;10.60;94.51;99205.09;5128218;28;20024;-68
2022/07/17 02:18:51;;;;;;;5.40;2.85;;;;;;;10.57;94.10;99202.50;5127983;28;20034;-67
2022/07/17 02:21:16;;;;;;;9.15;2.95;;;;;;;10.48;93.86;99199.09;5128260;28;20027;-67
2022/07/17 02:23:41;;;;;;;3.42;2.55;;;;;;;10.40;94.25;99195.66;5128043;28;20028;-68
2022/07/17 02:26:08;;;;;;;5.20;3.00;;;;;;;10.35;94.48;99202.75;5128036;28;20331;-68
2022/07/17 02:28:33;;;;;;;9.43;3.05;;;;;;;10.36;94.72;99208.00;5127726;28;20046;-68
2022/07/17 02:30:59;;;;;;;4.88;2.75;;;;;;;10.37;94.51;99200.94;5127843;28;20051;-68
2022/07/17 02:33:24;;;;;;;4.05;2.90;;;;;;;10.28;94.27;99201.03;5127940;28;20020;-68
2022/07/17 02:35:50;;;;;;;10.55;3.28;;;;;;;10.30;95.21;99204.53;5127795;28;20038;-68
2022/07/17 02:38:16;;;;;;;8.93;3.03;;;;;;;10.16;94.26;99191.50;5127567;28;20043;-68
2022/07/17 02:40:41;;;;;;;4.78;2.92;;;;;;;10.14;94.26;99197.66;5127683;28;20016;-68
2022/07/17 02:43:07;;;;;;;4.13;2.75;;;;;;;9.98;95.47;99190.75;5127651;28;20027;-67
2022/07/17 02:45:33;;;;;;;9.73;3.58;;;;;;;10.00;97.55;99199.50;5127721;28;20023;-67
2022/07/17 02:47:58;;;;;;;5.28;3.13;;;;;;;10.10;96.40;99201.22;5127747;28;20022;-67
2022/07/17 02:50:24;;;;;;;20.55;4.20;;;;;;;10.03;95.94;99189.81;5127545;28;20511;-68
2022/07/17 02:52:49;;;;;;;8.10;3.42;;;;;;;9.93;95.58;99192.53;5127436;28;20027;-69
2022/07/17 02:55:16;;;;;;;4.57;3.33;;;;;;;9.79;97.25;99199.66;5127420;28;20319;-69
2022/07/17 02:57:42;;;;;;;7.05;3.25;;;;;;;9.83;97.63;99201.38;5127218;28;20031;-69
2022/07/17 03:00:11;;;;;;;4.15;3.05;;;;;;;9.91;97.55;99207.47;5127305;28;20030;-68
2022/07/17 03:02:36;;;;;;;6.28;3.25;;;;;;;9.90;95.96;99198.69;5127300;28;20085;-69
2022/07/17 03:05:03;;;;;;;4.20;2.80;;;;;;;9.72;95.86;99197.97;5127211;28;20035;-68
2022/07/17 03:07:28;;;;;;;14.25;3.25;;;;;;;9.75;95.94;99200.56;5127406;28;20090;-68
2022/07/17 03:09:54;;;;;;;7.43;3.33;;;;;;;9.82;96.02;99197.00;5126359;28;20061;-68
2022/07/17 03:12:19;;;;;;;4.82;2.88;;;;;;;9.79;96.01;99207.56;5127068;28;20095;-68
2022/07/17 03:14:44;;;;;;;7.30;2.67;;;;;;;9.69;95.34;99198.00;5126998;28;20338;-68
2022/07/17 03:17:10;;;;;;;6.93;3.00;;;;;;;9.76;95.47;99202.31;5126980;28;20305;-68
2022/07/17 03:19:35;;;;;;;5.20;3.00;;;;;;;9.80;95.57;99204.03;5127097;28;20023;-68
2022/07/17 03:22:01;;;;;;;8.73;2.80;;;;;;;9.72;95.59;99204.13;5126970;28;20024;-68
2022/07/17 03:24:26;;;;;;;5.03;2.90;;;;;;;9.65;95.85;99209.41;5126883;28;20241;-68
2022/07/17 03:26:51;;;;;;;4.35;3.00;;;;;;;9.69;95.98;99209.38;5126608;28;20106;-68
2022/07/17 03:29:17;;;;;;;5.30;3.03;;;;;;;9.67;95.93;99212.88;5126721;28;20065;-68
2022/07/17 03:31:43;;;;;;;8.35;3.55;;;;;;;9.53;95.94;99209.50;5126971;28;20180;-68
2022/07/17 03:34:09;;;;;;;5.10;2.97;;;;;;;9.61;96.26;99207.66;5126683;28;20030;-68
2022/07/17 03:36:34;;;;;;;4.28;2.95;;;;;;;9.62;96.51;99212.06;5126656;28;20016;-68
2022/07/17 03:39:00;;;;;;;5.05;3.28;;;;;;;9.61;95.69;99205.03;5126472;28;20023;-68
2022/07/17 03:41:25;;;;;;;4.28;3.05;;;;;;;9.51;95.36;99208.59;5126565;28;20027;-68
2022/07/17 03:43:51;;;;;;;6.55;2.97;;;;;;;9.40;95.65;99210.44;5126463;28;20028;-68
2022/07/17 03:46:16;;;;;;;6.13;2.65;;;;;;;9.20;96.10;99217.56;5126464;28;20091;-68
2022/07/17 03:48:42;;;;;;;11.18;3.45;;;;;;;9.20;97.29;99213.16;5126420;28;20019;-67
2022/07/17 03:51:07;;;;;;;6.35;3.05;;;;;;;9.24;97.99;99219.28;5126332;28;20023;-68
2022/07/17 03:53:33;;;;;;;3.80;2.72;;;;;;;9.30;98.19;99216.63;5126303;28;20028;-68
2022/07/17 03:55:58;;;;;;;3.90;2.97;;;;;;;9.21;97.45;99211.41;5125439;28;20078;-68
2022/07/17 03:58:23;;;;;;;4.88;3.20;;;;;;;9.20;97.23;99228.06;5126166;28;20259;-68
2022/07/17 04:00:49;;;;;;;11.00;3.10;;;;;;;9.15;97.84;99220.22;5126121;28;20094;-68
2022/07/17 04:03:14;;;;;;;4.90;3.15;;;;;;;9.11;98.06;99222.84;5126063;28;20319;-68
2022/07/17 04:05:39;;;;;;;5.80;3.00;;;;;;;9.14;97.51;99217.59;5126027;28;20023;-68
2022/07/17 04:08:05;;;;;;;7.32;3.33;;;;;;;9.30;98.45;99227.13;5126035;28;20341;-68
2022/07/17 04:10:30;;;;;;;6.95;3.00;;;;;;;9.39;98.22;99221.81;5126017;28;20086;-68
2022/07/17 04:12:56;;;;;;;6.07;3.20;;;;;;;9.32;97.11;99225.34;5125866;28;20042;-68
2022/07/17 04:18:05;;;;;;;5.50;2.70;;;;;;;9.54;96.53;99232.25;5125767;28;20069;-68
2022/07/17 04:20:31;;;;;;;8.98;4.32;;;;;;;9.56;95.97;99227.88;5125197;28;20258;-68
2022/07/17 04:22:57;;;;;;;7.85;3.17;;;;;;;9.50;95.46;99233.16;5125395;28;20023;-68
2022/07/17 04:25:23;;;;;;;5.20;3.20;;;;;;;9.53;95.50;99234.03;5125868;28;20023;-68
2022/07/17 04:27:48;;;;;;;5.03;2.90;;;;;;;9.55;95.48;99226.97;5125397;28;20087;-68
2022/07/17 04:30:13;;;;;;;4.72;3.03;;;;;;;9.46;95.69;99236.69;5125539;28;20219;-68
2022/07/17 04:32:39;;;;;;;6.35;3.22;;;;;;;9.51;97.21;99237.50;5125522;28;20087;-68
2022/07/17 04:35:05;;;;;;;5.55;3.53;;;;;;;9.61;96.90;99237.47;5125462;28;20318;-68
2022/07/17 04:37:30;;;;;;;4.93;3.10;;;;;;;9.69;96.01;99240.03;5125461;28;20023;-68
2022/07/17 04:39:55;;;;;;;5.97;3.20;;;;;;;9.66;96.28;99245.31;5125245;28;20015;-68
2022/07/17 04:42:21;;;;;;;4.75;2.72;;;;;;;9.86;96.01;99248.69;5125312;28;20368;-68
2022/07/17 04:44:46;;;;;;;4.95;3.70;;;;;;;10.14;95.48;99252.91;5125257;28;20046;-68
2022/07/17 04:47:11;;;;;;;5.47;3.28;;;;;;;11.06;92.61;99252.88;5125230;28;20030;-68
2022/07/17 04:49:37;;;;;;;3.78;2.72;;;;;;;12.91;85.04;99253.56;5125168;28;20038;-68
2022/07/17 04:52:02;;;;;;;3.65;2.70;;;;;;;14.27;77.57;99248.88;5125166;28;20020;-68
2022/07/17 04:54:28;;;;;;;5.53;2.60;;;;;;;14.84;72.46;99243.91;5125055;28;20403;-68
2022/07/17 04:56:53;;;;;;;3.40;2.10;;;;;;;15.55;69.54;99250.72;5125164;28;20023;-68
2022/07/17 04:59:19;;;;;;;5.13;2.20;;;;;;;16.47;66.96;99251.38;5124929;28;20018;-68
2022/07/17 05:01:44;;;;;;;2.90;2.05;;;;;;;17.01;64.86;99254.78;5124980;28;20028;-68
2022/07/17 05:04:09;;;;;;;4.68;2.20;;;;;;;17.22;63.66;99256.66;5124871;28;20019;-68
2022/07/17 05:06:35;;;;;;;4.30;2.67;;;;;;;17.75;62.33;99259.19;5124916;28;20353;-68
2022/07/17 05:09:00;;;;;;;4.93;2.15;;;;;;;18.42;61.27;99268.97;5124822;28;20015;-68
2022/07/17 05:11:25;;;;;;;4.70;1.80;;;;;;;18.83;59.29;99265.44;5124963;28;20050;-68
2022/07/17 05:13:51;;;;;;;2.13;1.65;;;;;;;19.08;58.06;99260.78;5124794;28;20048;-68
2022/07/17 05:16:16;;;;;;;3.58;2.00;;;;;;;19.03;57.50;99265.44;5124736;28;20023;-68
2022/07/17 05:18:42;;;;;;;3.58;1.83;;;;;;;18.55;58.56;99259.53;5124669;28;20046;-68
2022/07/17 05:21:07;;;;;;;4.75;2.20;;;;;;;18.38;59.62;99267.34;5124698;28;20024;-68
2022/07/17 05:23:32;;;;;;;3.35;1.90;;;;;;;19.09;59.72;99275.84;5124708;28;20024;-68
2022/07/17 05:25:58;;;;;;;5.45;1.67;;;;;;;19.61;56.74;99272.63;5124767;28;20020;-68
2022/07/17 05:28:23;;;;;;;2.45;1.50;;;;;;;20.49;55.87;99286.25;5124405;28;20054;-68
2022/07/17 05:30:49;;;;;;;2.75;1.85;;;;;;;20.87;55.37;99287.91;5124596;28;20032;-68
2022/07/17 05:33:14;;;;;;;3.90;1.65;;;;;;;21.17;55.30;99291.72;5124200;28;20361;-68
2022/07/17 05:35:39;;;;;;;3.17;1.63;;;;;;;20.95;54.90;99280.34;5124492;28;20023;-68
2022/07/17 05:38:06;;;;;;;5.20;1.58;;;;;;;21.48;54.19;99290.13;5124421;28;20019;-68
2022/07/17 05:40:31;;;;;;;4.55;1.88;;;;;;;21.51;55.16;99288.13;5124709;28;20184;-68
2022/07/17 05:42:58;;;;;;;3.25;1.67;;;;;;;22.18;53.56;99298.78;5124459;28;20022;-68
2022/07/17 05:45:23;;;;;;;2.88;1.60;;;;;;;22.18;52.47;99290.75;5124393;28;20025;-68
2022/07/17 05:47:48;;;;;;;3.63;1.95;;;;;;;22.43;51.72;99283.06;5106283;28;20042;-68
2022/07/17 05:50:14;;;;;;;2.30;1.42;;;;;;;22.84;49.93;99284.22;5124405;28;20020;-68
2022/07/17 05:52:39;;;;;;;7.82;1.65;;;;;;;22.86;51.23;99276.94;5124387;28;20043;-68
2022/07/17 05:55:05;;;;;;;6.10;1.60;;;;;;;23.77;49.79;99289.28;5124399;28;20046;-68
2022/07/17 05:57:30;;;;;;;3.50;1.52;;;;;;;23.71;47.41;99289.66;5124402;28;20056;-69
2022/07/17 05:59:56;;;;;;;9.40;1.83;;;;;;;24.05;46.25;99278.56;5124266;28;20074;-69
2022/07/17 06:02:21;;;;;;;3.17;1.50;;;;;;;24.90;44.43;99284.63;5124286;28;20032;-69
2022/07/17 06:04:46;;;;;;;4.72;1.40;;;;;;;25.24;43.96;99289.44;5124262;28;20030;-68
2022/07/17 06:07:12;;;;;;;5.15;1.80;;;;;;;25.47;45.64;99290.59;5124299;28;20028;-69
2022/07/17 06:09:37;;;;;;;4.57;1.60;;;;;;;26.22;41.78;99291.44;5124283;28;20018;-67
2022/07/17 06:12:03;;;;;;;4.28;1.30;;;;;;;25.63;41.70;99288.56;5124213;28;20087;-67
2022/07/17 06:14:28;;;;;;;3.75;1.48;;;;;;;26.18;40.73;99294.47;5124423;28;20319;-69
2022/07/17 06:16:54;;;;;;;6.05;2.10;;;;;;;26.58;40.06;99293.31;5124145;28;20223;-69
2022/07/17 06:19:19;;;;;;;4.18;1.35;;;;;;;26.83;40.03;99287.84;5124033;28;20015;-67
2022/07/17 06:21:44;;;;;;;18.30;1.90;;;;;;;27.38;39.42;99293.50;5124046;28;20023;-67
2022/07/17 06:24:10;;;;;;;3.70;1.88;;;;;;;27.30;39.34;99290.50;5124100;28;20039;-69
2022/07/17 06:26:35;;;;;;;4.60;1.60;;;;;;;27.28;40.66;99289.78;5123989;28;20043;-67
2022/07/17 06:29:00;;;;;;;16.50;2.58;;;;;;;27.90;37.63;99293.88;5123951;28;20065;-67
2022/07/17 06:31:26;;;;;;;5.85;1.77;;;;;;;28.64;36.59;99302.25;5124147;28;20327;-68
2022/07/17 06:33:51;;;;;;;3.70;1.33;;;;;;;29.00;35.94;99292.91;5123987;28;20163;-68
2022/07/17 06:36:17;;;;;;;6.35;1.63;;;;;;;28.44;36.11;99284.00;5123981;28;20023;-68
2022/07/17 06:38:42;;;;;;;4.88;1.48;;;;;;;29.21;36.61;99297.41;5123841;28;20056;-68
2022/07/17 06:41:08;;;;;;;5.13;1.38;;;;;;;29.80;36.18;99294.16;5123925;28;20036;-68
2022/07/17 06:43:33;;;;;;;2.78;1.27;;;;;;;28.85;36.32;99284.22;5123999;28;20204;-68
2022/07/17 06:45:58;;;;;;;7.70;1.48;;;;;;;28.53;36.68;99296.84;5127376;28;20019;-68
2022/07/17 06:48:24;;;;;;;4.20;1.58;;;;;;;29.15;35.63;99307.94;5127594;28;20016;-68
2022/07/17 06:50:49;;;;;;;5.03;1.80;;;;;;;28.99;35.54;99292.06;5127518;28;20086;-68
2022/07/17 06:53:15;;;;;;;4.50;1.60;;;;;;;28.77;35.12;99286.72;5127493;28;20350;-68
2022/07/17 06:55:41;;;;;;;4.30;1.45;;;;;;;28.46;34.53;99282.09;5127656;28;20079;-68
2022/07/17 06:58:06;;;;;;;3.92;1.58;;;;;;;29.51;34.31;99309.38;5127333;28;20030;-68
2022/07/17 07:00:32;;;;;;;3.00;1.75;;;;;;;29.48;33.61;99298.78;5127366;28;20027;-68
2022/07/17 07:02:58;;;;;;;6.68;1.60;;;;;;;29.83;33.72;99321.06;5127277;28;20092;-68
2022/07/17 07:05:23;;;;;;;6.43;1.50;;;;;;;29.15;33.97;99302.50;5127201;28;20068;-68
2022/07/17 07:07:49;;;;;;;3.63;1.40;;;;;;;28.56;33.77;99283.06;5127146;28;20068;-68
2022/07/17 07:10:14;;;;;;;4.55;1.40;;;;;;;30.08;33.40;99320.63;5127160;28;20096;-68
2022/07/17 07:12:40;;;;;;;3.88;1.42;;;;;;;30.11;32.99;99318.47;5127116;28;20249;-68
2022/07/17 07:15:06;;;;;;;6.70;1.60;;;;;;;29.94;33.31;99319.13;5127078;28;20265;-68
2022/07/17 07:17:34;;;;;;;3.28;1.70;;;;;;;30.11;32.91;99312.19;5127022;28;20031;-68
2022/07/17 07:20:00;;;;;;;3.22;1.42;;;;;;;30.74;32.82;99320.06;5126914;28;20069;-68
2022/07/17 07:22:26;;;;;;;5.75;1.63;;;;;;;30.08;32.27;99307.88;5126952;28;20347;-68
2022/07/17 07:24:51;;;;;;;4.25;1.38;;;;;;;30.02;32.88;99313.03;5126864;28;20132;-68
2022/07/17 07:27:17;;;;;;;2.65;1.52;;;;;;;30.41;32.70;99312.22;5126725;28;20062;-68
2022/07/17 07:29:42;;;;;;;6.07;1.50;;;;;;;30.85;32.25;99317.25;5126802;28;20047;-68
2022/07/17 07:32:07;;;;;;;5.07;1.70;;;;;;;30.47;33.60;99322.53;5126700;28;20031;-68
2022/07/17 07:34:33;;;;;;;5.03;1.40;;;;;;;30.50;31.61;99305.97;5126763;28;20056;-67
2022/07/17 07:36:58;;;;;;;5.07;1.40;;;;;;;30.93;31.80;99314.69;5126875;28;20028;-67
2022/07/17 07:39:23;;;;;;;3.45;1.40;;;;;;;32.10;31.28;99327.13;5126530;28;20068;-67
2022/07/17 07:41:49;;;;;;;3.97;1.50;;;;;;;32.02;30.43;99317.00;5126517;28;20364;-67
2022/07/17 07:44:14;;;;;;;3.63;1.60;;;;;;;32.14;30.82;99326.69;5126513;28;20039;-67
2022/07/17 07:46:40;;;;;;;5.03;1.60;;;;;;;32.65;30.21;99323.50;5126427;28;20035;-67
2022/07/17 07:49:05;;;;;;;4.28;1.63;;;;;;;31.91;31.64;99313.56;5126424;28;20058;-67
2022/07/17 07:51:31;;;;;;;2.90;1.45;;;;;;;31.71;30.74;99320.91;5126622;28;20019;-67
2022/07/17 07:53:56;;;;;;;7.38;1.63;;;;;;;31.26;30.77;99305.25;5126415;28;20029;-67
2022/07/17 07:56:21;;;;;;;2.60;1.10;;;;;;;31.25;30.84;99309.84;5124864;28;20382;-67
2022/07/17 07:58:47;;;;;;;4.03;1.60;;;;;;;31.40;31.71;99324.78;5126080;28;20068;-67
2022/07/17 08:01:12;;;;;;;4.93;1.50;;;;;;;31.76;31.18;99324.03;5126087;28;20031;-67
2022/07/17 08:03:38;;;;;;;1.95;1.00;;;;;;;32.23;29.78;99320.34;5126077;28;20382;-67
2022/07/17 08:06:03;;;;;;;3.67;1.33;;;;;;;32.19;30.66;99308.03;5126035;28;20043;-67
2022/07/17 08:08:28;;;;;;;2.35;1.40;;;;;;;31.94;29.93;99297.78;5126103;28;20008;-67
2022/07/17 08:10:54;;;;;;;4.50;1.42;;;;;;;32.22;31.24;99324.09;5125951;28;20019;-67
2022/07/17 08:13:19;;;;;;;3.33;1.50;;;;;;;32.32;31.21;99324.91;5125905;28;20026;-67
2022/07/17 08:15:45;;;;;;;8.80;1.40;;;;;;;33.52;29.24;99332.84;5126095;28;20019;-67
2022/07/17 08:18:10;;;;;;;5.88;1.60;;;;;;;32.31;29.40;99314.16;5126008;28;20023;-67
2022/07/17 08:20:36;;;;;;;3.85;1.50;;;;;;;31.87;29.83;99313.00;5125774;28;20090;-67
2022/07/17 08:23:01;;;;;;;4.28;1.58;;;;;;;32.31;29.58;99323.22;5125741;28;20085;-67
2022/07/17 08:25:27;;;;;;;3.15;1.20;;;;;;;32.28;30.22;99319.91;5125735;28;20211;-67
2022/07/17 08:27:52;;;;;;;3.78;1.30;;;;;;;32.42;30.66;99320.31;5125421;28;20035;-67
2022/07/17 08:30:17;;;;;;;5.38;1.55;;;;;;;32.98;30.54;99328.34;5125639;28;20030;-67
2022/07/17 08:32:43;;;;;;;4.53;1.50;;;;;;;32.68;30.12;99315.88;5125498;28;20245;-67
2022/07/17 08:35:11;;;;;;;6.35;1.50;;;;;;;32.51;29.10;99308.50;5125470;28;20034;-67
2022/07/17 08:37:52;;;;;;;7.05;1.40;;;;;;;32.40;30.91;99330.50;5125674;28;20087;-67
2022/07/17 08:40:22;;;;;;;;;;;;;;;31.82;30.26;99315.31;5125844;28;20046;-67
2022/07/17 08:42:48;;;;;;;2.80;1.50;;;;;;;33.05;29.24;99330.31;5125375;28;19904;-67
2022/07/17 08:45:14;;;;;;;9.65;1.75;;;;;;;33.04;29.95;99327.75;5125312;28;20072;-67
2022/07/17 08:47:41;;;;;;;5.20;1.40;;;;;;;32.78;29.96;99316.66;5125237;28;20087;-67
2022/07/17 08:50:08;;;;;;;10.40;1.60;;;;;;;33.88;29.10;99335.41;5125424;28;20215;-67
2022/07/17 08:52:33;;;;;;;2.03;1.20;;;;;;;33.56;28.32;99312.44;5125211;28;20090;-67
2022/07/17 08:54:59;;;;;;;7.78;1.77;;;;;;;33.37;29.20;99323.53;5125156;28;20024;-67
2022/07/17 08:57:24;;;;;;;4.15;1.55;;;;;;;33.84;28.46;99322.19;5125069;28;20024;-67
2022/07/17 08:59:50;;;;;;;5.72;1.20;;;;;;;33.66;29.29;99318.66;5124919;28;20056;-67
2022/07/17 09:02:15;;;;;;;4.28;1.50;;;;;;;33.61;28.72;99321.00;5125089;28;20100;-67
2022/07/17 09:04:41;;;;;;;3.50;1.60;;;;;;;33.61;28.32;99327.31;5124997;28;20035;-67
2022/07/17 09:07:06;;;;;;;1.52;1.10;;;;;;;33.78;28.90;99328.31;5124294;28;20019;-67
2022/07/17 09:09:36;;;;;;;4.28;1.30;;;;;;;34.12;28.50;99332.88;5125015;28;20019;-67
2022/07/17 09:12:04;;;;;;;2.47;1.27;;;;;;;33.48;27.88;99309.63;5124963;28;20046;-67
2022/07/17 09:14:38;;;;;;;5.93;1.70;;;;;;;32.22;29.90;99302.28;5125073;28;20206;-67
2022/07/17 09:17:05;;;;;;;6.85;1.60;;;;;;;32.69;28.82;99306.69;5124765;28;20019;-67
2022/07/17 09:19:31;;;;;;;4.10;1.50;;;;;;;32.78;29.40;99313.94;5124757;28;20020;-67
2022/07/17 09:22:07;;;;;;;7.18;1.45;;;;;;;32.82;29.73;99307.19;5124687;28;20027;-67
2022/07/17 09:24:48;;;;;;;3.30;1.40;;;;;;;33.13;28.67;99316.75;5124682;28;20019;-67
2022/07/17 09:27:28;;;;;;;3.83;1.38;;;;;;;32.72;28.98;99300.94;5124505;28;20376;-67
2022/07/17 09:29:55;;;;;;;2.45;1.33;;;;;;;32.94;28.98;99307.88;5124602;28;20031;-67
2022/07/17 09:32:23;;;;;;;5.20;1.63;;;;;;;33.10;29.25;99310.75;5124803;28;20029;-67
2022/07/17 09:34:50;;;;;;;2.22;1.38;;;;;;;33.70;28.55;99317.31;5124542;28;20334;-67
2022/07/17 09:37:15;;;;;;;2.40;1.50;;;;;;;33.76;27.75;99311.22;5124541;28;20028;-67
2022/07/17 09:39:41;;;;;;;4.70;1.92;;;;;;;33.76;27.92;99300.31;5124444;28;20327;-67
2022/07/17 09:42:07;;;;;;;3.92;1.25;;;;;;;34.54;27.20;99300.13;5124532;28;20024;-67
2022/07/17 09:44:33;;;;;;;3.03;1.38;;;;;;;34.83;26.63;99300.63;5124440;28;20064;-67
2022/07/17 09:47:01;;;;;;;1.83;1.02;;;;;;;33.62;25.31;99289.97;5124493;28;20026;-67
2022/07/17 09:49:27;;;;;;;3.60;1.38;;;;;;;32.92;26.22;99269.84;5124407;28;20016;-67
2022/07/17 09:51:54;;;;;;;2.30;1.10;;;;;;;32.91;26.18;99275.44;5124405;28;20087;-67
2022/07/17 09:54:23;;;;;;;4.13;1.45;;;;;;;32.76;27.17;99280.53;5124362;28;20020;-67
2022/07/17 09:56:51;;;;;;;1.70;1.20;;;;;;;32.73;25.54;99280.84;5124315;28;20019;-67
2022/07/17 09:59:18;;;;;;;3.17;1.15;;;;;;;32.51;25.32;99294.88;5124206;28;20086;-67
2022/07/17 10:01:44;;;;;;;2.47;1.55;;;;;;;32.10;26.40;99287.13;5124283;28;20069;-67
2022/07/17 10:04:13;;;;;;;4.07;1.50;;;;;;;32.33;26.40;99296.69;5124260;28;20019;-67
2022/07/17 10:06:38;;;;;;;3.20;1.45;;;;;;;32.81;26.71;99300.00;5106138;28;20023;-67
2022/07/17 10:09:05;;;;;;;2.45;1.48;;;;;;;32.44;26.33;99285.59;5124195;28;20046;-67
2022/07/17 10:11:34;;;;;;;4.35;1.30;;;;;;;32.82;26.11;99284.50;5124340;28;20083;-67
2022/07/17 10:14:10;;;;;;;4.50;1.17;;;;;;;33.15;25.24;99280.28;5124177;28;20124;-67
2022/07/17 10:16:38;;;;;;;4.00;1.05;;;;;;;32.70;25.72;99275.69;5124165;28;20030;-67
2022/07/17 10:19:15;;;;;;;2.58;1.40;;;;;;;32.20;25.49;99277.06;5126270;28;20412;-67
2022/07/17 10:22:04;;;;;;;3.30;1.23;;;;;;;32.10;26.75;99276.25;5128186;28;20024;-67
2022/07/17 10:24:30;;;;;;;4.07;1.20;;;;;;;32.49;26.77;99271.50;5128336;28;20027;-67
2022/07/17 10:26:56;;;;;;;2.83;1.30;;;;;;;32.29;25.92;99270.72;5127713;28;20061;-67
2022/07/17 10:29:31;;;;;;;2.42;1.10;;;;;;;32.91;26.14;99279.03;5127918;28;20020;-67
2022/07/17 10:31:58;;;;;;;3.60;1.20;;;;;;;32.98;25.38;99274.66;5128127;28;20024;-67
2022/07/17 10:34:39;;;;;;;3.00;1.23;;;;;;;33.58;26.08;99288.53;5127866;28;20086;-67
2022/07/17 10:37:18;;;;;;;;;;;;;;;33.44;25.81;99280.94;5128473;28;20015;-67
2022/07/17 10:39:54;;;;;;;4.43;1.38;;;;;;;33.39;25.00;99273.22;5127681;28;19903;-67
2022/07/17 10:42:46;;;;;;;2.92;1.23;;;;;;;33.06;25.58;99266.56;5127721;28;20379;-67
2022/07/17 10:45:17;;;;;;;1.38;1.10;;;;;;;32.88;26.65;99265.72;5127681;28;20269;-67
2022/07/17 10:48:09;;;;;;;;;;;;;;;32.78;26.45;99261.28;5126922;28;20027;-67
2022/07/17 10:50:38;;;;;;;2.28;1.20;;;;;;;32.40;26.27;99266.97;5123438;28;20084;-67
2022/07/17 10:53:06;;;;;;;1.70;1.02;;;;;;;32.23;26.19;99275.88;5127823;28;20091;-67
2022/07/17 10:55:33;;;;;;;1.25;0.98;;;;;;;32.33;25.82;99277.59;5127505;28;20241;-67
2022/07/17 10:57:59;;;;;;;2.83;1.00;;;;;;;32.48;25.38;99265.19;5127612;28;20016;-67
2022/07/17 11:00:25;;;;;;;3.55;1.38;;;;;;;32.56;25.85;99281.66;5127334;28;20226;-67
2022/07/17 11:02:51;;;;;;;5.40;1.30;;;;;;;32.10;25.83;99275.38;5127351;28;20028;-67
2022/07/17 11:05:17;;;;;;;7.47;1.15;;;;;;;32.23;26.18;99279.47;5127329;28;20086;-67
2022/07/17 11:07:58;;;;;;;2.05;1.20;;;;;;;32.60;25.87;99285.78;5127186;28;20023;-67
2022/07/17 11:10:25;;;;;;;2.13;1.23;;;;;;;32.11;25.68;99279.84;5127164;28;20020;-67
2022/07/17 11:12:52;;;;;;;4.72;1.10;;;;;;;31.92;26.54;99278.00;5127129;28;20027;-67
2022/07/17 11:15:17;;;;;;;3.10;1.30;;;;;;;31.91;25.45;99276.31;5127095;28;20091;-67
2022/07/17 11:17:48;;;;;;;4.47;1.08;;;;;;;32.00;26.20;99291.75;5127067;28;20024;-67
2022/07/17 11:20:15;;;;;;;7.05;1.40;;;;;;;32.70;25.67;99300.22;5126985;28;20390;-67
2022/07/17 11:22:41;;;;;;;2.80;1.17;;;;;;;32.06;23.36;99268.50;5127169;28;20323;-67
2022/07/17 11:25:08;;;;;;;1.70;0.95;;;;;;;32.35;24.24;99274.72;5127112;28;20364;-67
2022/07/17 11:27:34;;;;;;;2.67;0.90;;;;;;;32.75;25.87;99295.16;5126672;28;20370;-67
2022/07/17 11:30:03;;;;;;;2.78;1.10;;;;;;;32.86;25.03;99281.34;5126208;28;20019;-67
2022/07/17 11:32:39;;;;;;;2.10;1.13;;;;;;;31.76;24.84;99264.13;5126767;28;20024;-67
2022/07/17 11:35:19;;;;;;;4.70;1.25;;;;;;;32.19;25.57;99264.44;5126767;28;20083;-67